Disclaimer

Please do not use the information listed here in-flight or in-navigation, as they are not provided to us by the airports but are provided by volunteers, so they might be outdated.

Search


Regions


Airport information page

Radio informations:
Tower (TWR) - 123.3 MHz
Ground (GND) - 121.9 MHz
Automatic Terminal Information Service (ATIS) - 127.0 MHz

Airport informations:
Latitude: 04° 19' 19.25" N
Longitude: 113° 59' 12.50" E
Elevation: 59 feet - 18 meters
Operating hours: Remarks
Operating agency: Civil government, landing fees and diplomatic clearance may be required
Timezone: UTC+8
Fuel: Jet fuel avaiable but type is unknown.

Runway information:
02/20 - 9006 x 197 feet< - >2745 x 60 meters

Recent METARs:
WBGR 201600Z VRB01KT 9999 SCT016 BKN150 25/25 Q1011
WBGR 201700Z 00000KT 9999 FEW016 BKN150 25/25 Q1010
WBGR 201700Z 00000KT 9999 FEW016 BKN150 25/25 Q1010

Airport on the map: